アテネ の空港の天気 - METARとTAF

アテネ国際空港 ( LGAV / ATH ) - ギリシャ アテネ
飛行場実況気象(Metar)
観測時間10/20 07:20 EEST (10/20 04:20 UTC)
風向・風速西北西 1m/s
視程6000m
天気現象
少しの雲 雲底高度 610m
気温16℃
湿度94%
気圧1020hPa
METARLGAV 200420Z 30002KT 6000 FEW020 16/15 Q1020 NOSIG
過去の天気等 Google飛行場航空写真 Wunderground天気予報

過去48時間のMETAR

飛行場予報(TAF)
発表時間: 10/20 03:57 EEST (10/20 00:57 UTC)
予報対象時間: 20日3時 EEST ~ 21日3時 EEST
風向・風速不定 2m/s
視程5000m
少しの雲 雲底高度 400m
全天の4割程度の雲 雲底高度 550m
20日3時 EEST から 確率 40% で
視程3000m
天気現象もや
全天の4割程度の雲 雲底高度 300m
20日3時 EEST から 確率 30% で
視程1500m
天気現象
20日9時 EEST ~ 20日11時 EEST に徐々に
風向・風速北 7m/s
少しの雲 雲底高度 610m
TAF AMD LGAV 200057Z 2000/2024 VRB03KT 5000 FEW013 SCT018
PROB40 2000/2006 3000 BR SCT010
PROB30 2000/2006 1500 FG
BECMG 2006/2008 01013KT FEW020